sensor_id;sensor_type;location;lat;lon;timestamp;P1;durP1;ratioP1;P2;durP2;ratioP2
52530;SDS011;38441;52.894;6.040;2023-02-28T00:00:01;7.90;;;2.63;;
52530;SDS011;38441;52.894;6.040;2023-02-28T00:02:35;6.40;;;2.50;;
52530;SDS011;38441;52.894;6.040;2023-02-28T00:05:01;6.88;;;2.88;;
52530;SDS011;38441;52.894;6.040;2023-02-28T00:07:28;5.07;;;2.75;;
52530;SDS011;38441;52.894;6.040;2023-02-28T00:09:55;6.18;;;2.85;;
52530;SDS011;38441;52.894;6.040;2023-02-28T00:12:21;8.55;;;2.63;;
52530;SDS011;38441;52.894;6.040;2023-02-28T00:14:47;6.65;;;2.75;;
52530;SDS011;38441;52.894;6.040;2023-02-28T00:17:14;6.22;;;2.70;;
52530;SDS011;38441;52.894;6.040;2023-02-28T00:19:40;5.38;;;2.63;;
52530;SDS011;38441;52.894;6.040;2023-02-28T00:22:06;4.28;;;2.40;;
52530;SDS011;38441;52.894;6.040;2023-02-28T00:24:32;7.78;;;2.65;;
52530;SDS011;38441;52.894;6.040;2023-02-28T00:26:58;10.15;;;2.90;;
52530;SDS011;38441;52.894;6.040;2023-02-28T00:29:24;6.75;;;2.75;;
52530;SDS011;38441;52.894;6.040;2023-02-28T00:31:50;6.63;;;2.83;;
52530;SDS011;38441;52.894;6.040;2023-02-28T00:34:16;8.38;;;2.45;;
52530;SDS011;38441;52.894;6.040;2023-02-28T00:36:42;6.75;;;2.40;;
52530;SDS011;38441;52.894;6.040;2023-02-28T00:39:10;6.75;;;2.80;;
52530;SDS011;38441;52.894;6.040;2023-02-28T00:41:36;7.05;;;2.78;;
52530;SDS011;38441;52.894;6.040;2023-02-28T00:44:02;5.47;;;2.45;;
52530;SDS011;38441;52.894;6.040;2023-02-28T00:46:28;8.05;;;3.33;;
52530;SDS011;38441;52.894;6.040;2023-02-28T00:48:54;7.80;;;3.55;;
52530;SDS011;38441;52.894;6.040;2023-02-28T00:51:20;10.63;;;4.07;;
52530;SDS011;38441;52.894;6.040;2023-02-28T00:53:46;7.45;;;3.53;;
52530;SDS011;38441;52.894;6.040;2023-02-28T00:56:12;6.75;;;3.35;;
52530;SDS011;38441;52.894;6.040;2023-02-28T00:58:39;10.18;;;3.95;;
52530;SDS011;38441;52.894;6.040;2023-02-28T01:01:05;8.00;;;3.15;;
52530;SDS011;38441;52.894;6.040;2023-02-28T01:03:31;7.78;;;3.17;;
52530;SDS011;38441;52.894;6.040;2023-02-28T01:05:57;5.00;;;2.38;;
52530;SDS011;38441;52.894;6.040;2023-02-28T01:08:23;7.80;;;3.13;;
52530;SDS011;38441;52.894;6.040;2023-02-28T01:10:51;6.05;;;2.65;;
52530;SDS011;38441;52.894;6.040;2023-02-28T01:13:17;6.10;;;2.97;;
52530;SDS011;38441;52.894;6.040;2023-02-28T01:15:49;5.40;;;2.90;;
52530;SDS011;38441;52.894;6.040;2023-02-28T01:18:17;8.30;;;3.10;;
52530;SDS011;38441;52.894;6.040;2023-02-28T01:20:43;8.30;;;3.13;;
52530;SDS011;38441;52.894;6.040;2023-02-28T01:23:09;6.90;;;3.25;;
52530;SDS011;38441;52.894;6.040;2023-02-28T01:25:36;8.15;;;3.22;;
52530;SDS011;38441;52.894;6.040;2023-02-28T01:28:02;6.95;;;2.97;;
52530;SDS011;38441;52.894;6.040;2023-02-28T01:30:28;7.35;;;3.13;;
52530;SDS011;38441;52.894;6.040;2023-02-28T01:32:54;5.95;;;2.80;;
52530;SDS011;38441;52.894;6.040;2023-02-28T01:35:20;9.48;;;3.30;;
52530;SDS011;38441;52.894;6.040;2023-02-28T01:37:46;5.15;;;3.17;;
52530;SDS011;38441;52.894;6.040;2023-02-28T01:40:12;5.95;;;2.83;;
52530;SDS011;38441;52.894;6.040;2023-02-28T01:42:38;8.25;;;3.05;;
52530;SDS011;38441;52.894;6.040;2023-02-28T01:45:25;6.60;;;3.20;;
52530;SDS011;38441;52.894;6.040;2023-02-28T01:47:54;5.80;;;2.97;;
52530;SDS011;38441;52.894;6.040;2023-02-28T01:50:27;9.02;;;2.55;;
52530;SDS011;38441;52.894;6.040;2023-02-28T01:52:55;6.93;;;2.88;;
52530;SDS011;38441;52.894;6.040;2023-02-28T01:55:24;7.65;;;3.13;;
52530;SDS011;38441;52.894;6.040;2023-02-28T01:57:55;7.25;;;3.35;;
52530;SDS011;38441;52.894;6.040;2023-02-28T02:00:24;9.25;;;3.45;;
52530;SDS011;38441;52.894;6.040;2023-02-28T02:02:53;10.02;;;3.50;;
52530;SDS011;38441;52.894;6.040;2023-02-28T02:05:26;6.22;;;3.13;;
52530;SDS011;38441;52.894;6.040;2023-02-28T02:07:56;8.05;;;3.42;;
52530;SDS011;38441;52.894;6.040;2023-02-28T02:10:31;5.78;;;3.22;;
52530;SDS011;38441;52.894;6.040;2023-02-28T02:18:41;7.00;;;3.60;;
52530;SDS011;38441;52.894;6.040;2023-02-28T02:26:47;7.45;;;3.25;;
52530;SDS011;38441;52.894;6.040;2023-02-28T02:29:40;9.18;;;3.28;;
52530;SDS011;38441;52.894;6.040;2023-02-28T02:34:54;7.03;;;3.20;;
52530;SDS011;38441;52.894;6.040;2023-02-28T02:37:29;5.43;;;3.15;;
52530;SDS011;38441;52.894;6.040;2023-02-28T02:42:50;8.60;;;3.28;;
52530;SDS011;38441;52.894;6.040;2023-02-28T02:45:21;8.75;;;4.10;;
52530;SDS011;38441;52.894;6.040;2023-02-28T02:48:01;6.78;;;3.33;;
52530;SDS011;38441;52.894;6.040;2023-02-28T02:50:29;5.32;;;3.60;;
52530;SDS011;38441;52.894;6.040;2023-02-28T02:53:00;6.63;;;2.97;;
52530;SDS011;38441;52.894;6.040;2023-02-28T02:55:28;7.55;;;3.50;;
52530;SDS011;38441;52.894;6.040;2023-02-28T02:58:01;5.97;;;3.22;;
52530;SDS011;38441;52.894;6.040;2023-02-28T03:00:32;7.93;;;3.47;;
52530;SDS011;38441;52.894;6.040;2023-02-28T03:03:01;9.02;;;3.72;;
52530;SDS011;38441;52.894;6.040;2023-02-28T03:05:30;8.43;;;3.10;;
52530;SDS011;38441;52.894;6.040;2023-02-28T03:08:13;8.85;;;3.60;;
52530;SDS011;38441;52.894;6.040;2023-02-28T03:10:43;7.05;;;3.28;;
52530;SDS011;38441;52.894;6.040;2023-02-28T03:13:18;9.18;;;3.92;;
52530;SDS011;38441;52.894;6.040;2023-02-28T03:18:54;6.43;;;2.83;;
52530;SDS011;38441;52.894;6.040;2023-02-28T03:21:55;6.05;;;3.25;;
52530;SDS011;38441;52.894;6.040;2023-02-28T03:27:06;5.50;;;2.97;;
52530;SDS011;38441;52.894;6.040;2023-02-28T03:29:40;5.72;;;3.42;;
52530;SDS011;38441;52.894;6.040;2023-02-28T03:32:16;7.07;;;3.25;;
52530;SDS011;38441;52.894;6.040;2023-02-28T03:34:55;5.30;;;3.40;;
52530;SDS011;38441;52.894;6.040;2023-02-28T03:37:53;5.75;;;3.78;;
52530;SDS011;38441;52.894;6.040;2023-02-28T03:40:26;8.27;;;3.97;;
52530;SDS011;38441;52.894;6.040;2023-02-28T03:42:57;7.53;;;3.70;;
52530;SDS011;38441;52.894;6.040;2023-02-28T03:45:28;12.43;;;4.28;;
52530;SDS011;38441;52.894;6.040;2023-02-28T03:47:57;8.30;;;3.67;;
52530;SDS011;38441;52.894;6.040;2023-02-28T03:50:35;8.30;;;3.70;;
52530;SDS011;38441;52.894;6.040;2023-02-28T03:53:09;7.00;;;3.53;;
52530;SDS011;38441;52.894;6.040;2023-02-28T03:55:40;6.68;;;3.60;;
52530;SDS011;38441;52.894;6.040;2023-02-28T03:58:15;6.53;;;3.42;;
52530;SDS011;38441;52.894;6.040;2023-02-28T04:01:13;4.97;;;3.17;;
52530;SDS011;38441;52.894;6.040;2023-02-28T04:03:44;7.53;;;3.65;;
52530;SDS011;38441;52.894;6.040;2023-02-28T04:06:15;5.40;;;3.28;;
52530;SDS011;38441;52.894;6.040;2023-02-28T04:08:43;7.35;;;3.28;;
52530;SDS011;38441;52.894;6.040;2023-02-28T04:14:01;5.53;;;3.28;;
52530;SDS011;38441;52.894;6.040;2023-02-28T04:16:28;6.40;;;2.90;;
52530;SDS011;38441;52.894;6.040;2023-02-28T04:18:54;5.43;;;3.00;;
52530;SDS011;38441;52.894;6.040;2023-02-28T04:21:48;4.85;;;3.03;;
52530;SDS011;38441;52.894;6.040;2023-02-28T04:24:15;5.72;;;3.35;;
52530;SDS011;38441;52.894;6.040;2023-02-28T04:26:47;6.18;;;2.95;;
52530;SDS011;38441;52.894;6.040;2023-02-28T04:29:25;7.25;;;3.28;;
52530;SDS011;38441;52.894;6.040;2023-02-28T04:31:52;6.20;;;2.92;;
52530;SDS011;38441;52.894;6.040;2023-02-28T04:34:19;5.57;;;2.85;;
52530;SDS011;38441;52.894;6.040;2023-02-28T04:36:46;5.68;;;3.03;;
52530;SDS011;38441;52.894;6.040;2023-02-28T04:39:14;5.40;;;2.78;;
52530;SDS011;38441;52.894;6.040;2023-02-28T04:41:40;6.03;;;3.50;;
52530;SDS011;38441;52.894;6.040;2023-02-28T04:44:06;6.68;;;3.30;;
52530;SDS011;38441;52.894;6.040;2023-02-28T04:46:32;8.73;;;4.97;;
52530;SDS011;38441;52.894;6.040;2023-02-28T04:48:58;8.43;;;5.95;;
52530;SDS011;38441;52.894;6.040;2023-02-28T04:51:24;10.35;;;6.50;;
52530;SDS011;38441;52.894;6.040;2023-02-28T04:53:50;8.80;;;5.75;;
52530;SDS011;38441;52.894;6.040;2023-02-28T04:56:17;8.98;;;6.18;;
52530;SDS011;38441;52.894;6.040;2023-02-28T04:58:43;10.13;;;6.22;;
52530;SDS011;38441;52.894;6.040;2023-02-28T05:03:51;12.38;;;6.50;;
52530;SDS011;38441;52.894;6.040;2023-02-28T05:06:18;12.10;;;6.20;;
52530;SDS011;38441;52.894;6.040;2023-02-28T05:08:45;10.25;;;6.03;;
52530;SDS011;38441;52.894;6.040;2023-02-28T05:13:43;8.98;;;6.22;;
52530;SDS011;38441;52.894;6.040;2023-02-28T05:16:09;9.48;;;6.47;;
52530;SDS011;38441;52.894;6.040;2023-02-28T05:18:36;10.70;;;6.43;;
52530;SDS011;38441;52.894;6.040;2023-02-28T05:21:02;11.98;;;6.80;;
52530;SDS011;38441;52.894;6.040;2023-02-28T05:23:28;10.15;;;6.35;;
52530;SDS011;38441;52.894;6.040;2023-02-28T05:25:54;12.35;;;6.97;;
52530;SDS011;38441;52.894;6.040;2023-02-28T05:28:20;12.60;;;7.18;;
52530;SDS011;38441;52.894;6.040;2023-02-28T05:30:46;10.35;;;6.50;;
52530;SDS011;38441;52.894;6.040;2023-02-28T05:33:12;15.73;;;7.80;;
52530;SDS011;38441;52.894;6.040;2023-02-28T05:35:39;11.35;;;6.38;;
52530;SDS011;38441;52.894;6.040;2023-02-28T05:38:05;13.43;;;7.03;;
52530;SDS011;38441;52.894;6.040;2023-02-28T05:40:32;12.68;;;7.30;;
52530;SDS011;38441;52.894;6.040;2023-02-28T05:42:58;12.20;;;6.78;;
52530;SDS011;38441;52.894;6.040;2023-02-28T05:45:24;11.48;;;6.93;;
52530;SDS011;38441;52.894;6.040;2023-02-28T05:47:53;11.60;;;7.20;;
52530;SDS011;38441;52.894;6.040;2023-02-28T05:50:19;14.18;;;8.02;;
52530;SDS011;38441;52.894;6.040;2023-02-28T05:52:49;12.25;;;7.45;;
52530;SDS011;38441;52.894;6.040;2023-02-28T05:55:15;11.50;;;7.32;;
52530;SDS011;38441;52.894;6.040;2023-02-28T05:57:41;11.63;;;7.95;;
52530;SDS011;38441;52.894;6.040;2023-02-28T06:00:07;12.25;;;7.63;;
52530;SDS011;38441;52.894;6.040;2023-02-28T06:02:34;12.18;;;8.25;;
52530;SDS011;38441;52.894;6.040;2023-02-28T06:05:00;12.73;;;7.93;;
52530;SDS011;38441;52.894;6.040;2023-02-28T06:07:26;10.10;;;7.22;;
52530;SDS011;38441;52.894;6.040;2023-02-28T06:09:52;12.70;;;7.72;;
52530;SDS011;38441;52.894;6.040;2023-02-28T06:12:18;13.18;;;8.05;;
52530;SDS011;38441;52.894;6.040;2023-02-28T06:14:44;13.32;;;8.15;;
52530;SDS011;38441;52.894;6.040;2023-02-28T06:17:10;12.73;;;8.32;;
52530;SDS011;38441;52.894;6.040;2023-02-28T06:19:37;14.05;;;8.75;;
52530;SDS011;38441;52.894;6.040;2023-02-28T06:22:04;14.27;;;8.32;;
52530;SDS011;38441;52.894;6.040;2023-02-28T06:24:30;12.75;;;7.93;;
52530;SDS011;38441;52.894;6.040;2023-02-28T06:26:56;11.48;;;7.63;;
52530;SDS011;38441;52.894;6.040;2023-02-28T06:29:29;11.60;;;7.43;;
52530;SDS011;38441;52.894;6.040;2023-02-28T06:31:55;12.70;;;8.00;;
52530;SDS011;38441;52.894;6.040;2023-02-28T06:34:21;12.70;;;8.35;;
52530;SDS011;38441;52.894;6.040;2023-02-28T06:36:49;12.85;;;7.85;;
52530;SDS011;38441;52.894;6.040;2023-02-28T06:39:16;12.05;;;7.63;;
52530;SDS011;38441;52.894;6.040;2023-02-28T06:41:42;11.55;;;7.78;;
52530;SDS011;38441;52.894;6.040;2023-02-28T06:44:17;12.05;;;7.70;;
52530;SDS011;38441;52.894;6.040;2023-02-28T06:46:43;12.20;;;7.43;;
52530;SDS011;38441;52.894;6.040;2023-02-28T06:49:10;12.38;;;7.47;;
52530;SDS011;38441;52.894;6.040;2023-02-28T06:51:37;11.00;;;8.07;;
52530;SDS011;38441;52.894;6.040;2023-02-28T06:54:04;11.43;;;8.30;;
52530;SDS011;38441;52.894;6.040;2023-02-28T06:56:33;16.42;;;7.57;;
52530;SDS011;38441;52.894;6.040;2023-02-28T06:59:00;12.45;;;8.40;;
52530;SDS011;38441;52.894;6.040;2023-02-28T07:01:26;13.05;;;7.93;;
52530;SDS011;38441;52.894;6.040;2023-02-28T07:03:53;12.30;;;7.80;;
52530;SDS011;38441;52.894;6.040;2023-02-28T07:06:19;10.57;;;7.28;;
52530;SDS011;38441;52.894;6.040;2023-02-28T07:08:47;10.85;;;7.53;;
52530;SDS011;38441;52.894;6.040;2023-02-28T07:11:13;16.90;;;8.82;;
52530;SDS011;38441;52.894;6.040;2023-02-28T07:13:39;12.85;;;8.20;;
52530;SDS011;38441;52.894;6.040;2023-02-28T07:16:06;14.45;;;8.85;;
52530;SDS011;38441;52.894;6.040;2023-02-28T07:18:33;13.48;;;8.40;;
52530;SDS011;38441;52.894;6.040;2023-02-28T07:21:03;13.13;;;8.32;;
52530;SDS011;38441;52.894;6.040;2023-02-28T07:23:33;12.45;;;8.23;;
52530;SDS011;38441;52.894;6.040;2023-02-28T07:25:59;10.43;;;7.32;;
52530;SDS011;38441;52.894;6.040;2023-02-28T07:28:25;12.32;;;8.32;;
52530;SDS011;38441;52.894;6.040;2023-02-28T07:30:51;10.75;;;7.72;;
52530;SDS011;38441;52.894;6.040;2023-02-28T07:33:17;12.35;;;8.10;;
52530;SDS011;38441;52.894;6.040;2023-02-28T07:35:43;10.07;;;7.38;;
52530;SDS011;38441;52.894;6.040;2023-02-28T07:38:09;10.77;;;7.10;;
52530;SDS011;38441;52.894;6.040;2023-02-28T07:40:36;10.65;;;7.57;;
52530;SDS011;38441;52.894;6.040;2023-02-28T07:43:02;10.70;;;7.35;;
52530;SDS011;38441;52.894;6.040;2023-02-28T07:45:28;10.55;;;7.93;;
52530;SDS011;38441;52.894;6.040;2023-02-28T07:47:56;13.77;;;7.78;;
52530;SDS011;38441;52.894;6.040;2023-02-28T07:50:22;11.27;;;7.75;;
52530;SDS011;38441;52.894;6.040;2023-02-28T07:52:48;11.02;;;8.13;;
52530;SDS011;38441;52.894;6.040;2023-02-28T07:55:14;13.27;;;8.43;;
52530;SDS011;38441;52.894;6.040;2023-02-28T07:57:41;11.95;;;7.47;;
52530;SDS011;38441;52.894;6.040;2023-02-28T08:00:08;10.63;;;7.57;;
52530;SDS011;38441;52.894;6.040;2023-02-28T08:02:35;10.88;;;7.82;;
52530;SDS011;38441;52.894;6.040;2023-02-28T08:05:01;12.13;;;7.72;;
52530;SDS011;38441;52.894;6.040;2023-02-28T08:07:27;22.98;;;13.45;;
52530;SDS011;38441;52.894;6.040;2023-02-28T08:09:53;28.40;;;15.90;;
52530;SDS011;38441;52.894;6.040;2023-02-28T08:12:19;22.33;;;13.75;;
52530;SDS011;38441;52.894;6.040;2023-02-28T08:14:45;23.15;;;13.48;;
52530;SDS011;38441;52.894;6.040;2023-02-28T08:17:11;24.15;;;12.32;;
52530;SDS011;38441;52.894;6.040;2023-02-28T08:19:37;21.92;;;12.18;;
52530;SDS011;38441;52.894;6.040;2023-02-28T08:22:03;20.77;;;12.88;;
52530;SDS011;38441;52.894;6.040;2023-02-28T08:24:29;28.67;;;14.82;;
52530;SDS011;38441;52.894;6.040;2023-02-28T08:26:56;25.00;;;14.98;;
52530;SDS011;38441;52.894;6.040;2023-02-28T08:29:22;27.42;;;15.68;;
52530;SDS011;38441;52.894;6.040;2023-02-28T08:31:48;30.08;;;16.48;;
52530;SDS011;38441;52.894;6.040;2023-02-28T08:34:14;32.35;;;17.05;;
52530;SDS011;38441;52.894;6.040;2023-02-28T08:36:41;45.10;;;17.42;;
52530;SDS011;38441;52.894;6.040;2023-02-28T08:39:09;46.30;;;17.10;;
52530;SDS011;38441;52.894;6.040;2023-02-28T08:41:35;39.65;;;19.83;;
52530;SDS011;38441;52.894;6.040;2023-02-28T08:44:02;41.63;;;20.92;;
52530;SDS011;38441;52.894;6.040;2023-02-28T08:46:28;44.70;;;21.80;;
52530;SDS011;38441;52.894;6.040;2023-02-28T08:48:57;45.13;;;21.73;;
52530;SDS011;38441;52.894;6.040;2023-02-28T08:51:25;42.95;;;22.13;;
52530;SDS011;38441;52.894;6.040;2023-02-28T08:53:51;44.50;;;22.38;;
52530;SDS011;38441;52.894;6.040;2023-02-28T08:56:19;44.03;;;22.50;;
52530;SDS011;38441;52.894;6.040;2023-02-28T08:58:45;41.53;;;21.92;;
52530;SDS011;38441;52.894;6.040;2023-02-28T09:01:16;41.22;;;21.70;;
52530;SDS011;38441;52.894;6.040;2023-02-28T09:06:11;40.03;;;20.73;;
52530;SDS011;38441;52.894;6.040;2023-02-28T09:08:37;39.28;;;20.42;;
52530;SDS011;38441;52.894;6.040;2023-02-28T09:11:03;43.58;;;22.80;;
52530;SDS011;38441;52.894;6.040;2023-02-28T09:13:29;38.15;;;19.63;;
52530;SDS011;38441;52.894;6.040;2023-02-28T09:15:57;40.28;;;20.30;;
52530;SDS011;38441;52.894;6.040;2023-02-28T09:18:23;38.58;;;19.98;;
52530;SDS011;38441;52.894;6.040;2023-02-28T09:20:50;36.70;;;21.10;;
52530;SDS011;38441;52.894;6.040;2023-02-28T09:23:16;39.90;;;20.70;;
52530;SDS011;38441;52.894;6.040;2023-02-28T09:25:49;41.10;;;20.27;;
52530;SDS011;38441;52.894;6.040;2023-02-28T09:28:16;39.25;;;21.50;;
52530;SDS011;38441;52.894;6.040;2023-02-28T09:30:47;39.15;;;20.75;;
52530;SDS011;38441;52.894;6.040;2023-02-28T09:35:41;35.35;;;19.17;;
52530;SDS011;38441;52.894;6.040;2023-02-28T09:38:08;34.72;;;17.63;;
52530;SDS011;38441;52.894;6.040;2023-02-28T09:40:35;27.30;;;17.85;;
52530;SDS011;38441;52.894;6.040;2023-02-28T09:43:04;22.13;;;13.32;;
52530;SDS011;38441;52.894;6.040;2023-02-28T09:45:32;25.35;;;14.93;;
52530;SDS011;38441;52.894;6.040;2023-02-28T09:48:02;21.05;;;12.77;;
52530;SDS011;38441;52.894;6.040;2023-02-28T09:50:38;16.83;;;10.75;;
52530;SDS011;38441;52.894;6.040;2023-02-28T09:53:19;14.60;;;9.30;;
52530;SDS011;38441;52.894;6.040;2023-02-28T09:56:10;13.73;;;9.10;;
52530;SDS011;38441;52.894;6.040;2023-02-28T09:58:48;13.73;;;9.07;;
52530;SDS011;38441;52.894;6.040;2023-02-28T10:01:23;12.70;;;9.05;;
52530;SDS011;38441;52.894;6.040;2023-02-28T10:03:58;10.82;;;7.28;;
52530;SDS011;38441;52.894;6.040;2023-02-28T10:06:30;11.77;;;8.05;;
52530;SDS011;38441;52.894;6.040;2023-02-28T10:09:02;11.07;;;7.00;;
52530;SDS011;38441;52.894;6.040;2023-02-28T10:11:50;8.93;;;6.70;;
52530;SDS011;38441;52.894;6.040;2023-02-28T10:14:18;9.30;;;6.22;;
52530;SDS011;38441;52.894;6.040;2023-02-28T10:16:56;8.70;;;6.22;;
52530;SDS011;38441;52.894;6.040;2023-02-28T10:19:33;9.32;;;5.57;;
52530;SDS011;38441;52.894;6.040;2023-02-28T10:22:13;8.60;;;4.85;;
52530;SDS011;38441;52.894;6.040;2023-02-28T10:24:49;7.95;;;4.75;;
52530;SDS011;38441;52.894;6.040;2023-02-28T10:27:20;7.00;;;4.50;;
52530;SDS011;38441;52.894;6.040;2023-02-28T10:29:52;8.70;;;4.47;;
52530;SDS011;38441;52.894;6.040;2023-02-28T10:32:20;7.25;;;4.57;;
52530;SDS011;38441;52.894;6.040;2023-02-28T10:37:46;5.93;;;3.67;;
52530;SDS011;38441;52.894;6.040;2023-02-28T10:43:21;4.53;;;3.00;;
52530;SDS011;38441;52.894;6.040;2023-02-28T10:50:44;9.88;;;2.92;;
52530;SDS011;38441;52.894;6.040;2023-02-28T10:53:22;6.75;;;3.40;;
52530;SDS011;38441;52.894;6.040;2023-02-28T10:56:00;5.65;;;3.08;;
52530;SDS011;38441;52.894;6.040;2023-02-28T10:58:46;5.88;;;3.95;;
52530;SDS011;38441;52.894;6.040;2023-02-28T11:01:33;5.80;;;3.58;;
52530;SDS011;38441;52.894;6.040;2023-02-28T11:04:02;6.20;;;3.70;;
52530;SDS011;38441;52.894;6.040;2023-02-28T11:06:29;7.28;;;4.00;;
52530;SDS011;38441;52.894;6.040;2023-02-28T11:09:02;7.43;;;3.97;;
52530;SDS011;38441;52.894;6.040;2023-02-28T11:11:40;5.47;;;3.13;;
52530;SDS011;38441;52.894;6.040;2023-02-28T11:14:16;5.38;;;2.90;;
52530;SDS011;38441;52.894;6.040;2023-02-28T11:16:48;4.88;;;2.50;;
52530;SDS011;38441;52.894;6.040;2023-02-28T11:19:28;6.93;;;2.58;;
52530;SDS011;38441;52.894;6.040;2023-02-28T11:22:00;5.25;;;3.08;;
52530;SDS011;38441;52.894;6.040;2023-02-28T11:24:31;3.92;;;2.50;;
52530;SDS011;38441;52.894;6.040;2023-02-28T11:27:00;5.65;;;2.10;;
52530;SDS011;38441;52.894;6.040;2023-02-28T11:29:28;6.00;;;2.80;;
52530;SDS011;38441;52.894;6.040;2023-02-28T11:32:02;4.07;;;2.20;;
52530;SDS011;38441;52.894;6.040;2023-02-28T11:34:41;5.13;;;2.17;;
52530;SDS011;38441;52.894;6.040;2023-02-28T11:37:18;4.18;;;2.42;;
52530;SDS011;38441;52.894;6.040;2023-02-28T11:39:44;5.28;;;2.10;;
52530;SDS011;38441;52.894;6.040;2023-02-28T11:42:27;4.00;;;2.00;;
52530;SDS011;38441;52.894;6.040;2023-02-28T11:45:15;3.22;;;1.85;;
52530;SDS011;38441;52.894;6.040;2023-02-28T11:48:08;5.63;;;2.35;;
52530;SDS011;38441;52.894;6.040;2023-02-28T11:50:57;4.85;;;2.60;;
52530;SDS011;38441;52.894;6.040;2023-02-28T11:56:24;4.40;;;2.50;;
52530;SDS011;38441;52.894;6.040;2023-02-28T11:59:19;4.60;;;2.25;;
52530;SDS011;38441;52.894;6.040;2023-02-28T12:01:51;3.80;;;2.28;;
52530;SDS011;38441;52.894;6.040;2023-02-28T12:10:24;4.45;;;2.30;;
52530;SDS011;38441;52.894;6.040;2023-02-28T12:27:18;5.85;;;2.70;;
52530;SDS011;38441;52.894;6.040;2023-02-28T12:29:54;5.43;;;2.90;;
52530;SDS011;38441;52.894;6.040;2023-02-28T12:32:30;5.72;;;2.80;;
52530;SDS011;38441;52.894;6.040;2023-02-28T12:37:34;6.00;;;2.80;;
52530;SDS011;38441;52.894;6.040;2023-02-28T12:40:12;5.32;;;2.97;;
52530;SDS011;38441;52.894;6.040;2023-02-28T12:42:44;4.97;;;2.80;;
52530;SDS011;38441;52.894;6.040;2023-02-28T12:45:14;5.30;;;2.90;;
52530;SDS011;38441;52.894;6.040;2023-02-28T12:48:03;6.03;;;2.80;;
52530;SDS011;38441;52.894;6.040;2023-02-28T12:50:31;5.65;;;3.20;;
52530;SDS011;38441;52.894;6.040;2023-02-28T12:53:21;6.60;;;2.88;;
52530;SDS011;38441;52.894;6.040;2023-02-28T12:58:39;5.80;;;3.22;;
52530;SDS011;38441;52.894;6.040;2023-02-28T13:01:25;6.07;;;3.40;;
52530;SDS011;38441;52.894;6.040;2023-02-28T13:09:23;5.97;;;3.00;;
52530;SDS011;38441;52.894;6.040;2023-02-28T13:11:52;6.05;;;3.13;;
52530;SDS011;38441;52.894;6.040;2023-02-28T13:19:29;5.18;;;3.00;;
52530;SDS011;38441;52.894;6.040;2023-02-28T13:21:57;5.78;;;3.50;;
52530;SDS011;38441;52.894;6.040;2023-02-28T13:24:42;5.47;;;3.30;;
52530;SDS011;38441;52.894;6.040;2023-02-28T13:27:20;5.28;;;3.17;;
52530;SDS011;38441;52.894;6.040;2023-02-28T13:29:49;6.25;;;3.20;;
52530;SDS011;38441;52.894;6.040;2023-02-28T13:32:19;12.90;;;3.75;;
52530;SDS011;38441;52.894;6.040;2023-02-28T13:40:33;5.38;;;3.28;;
52530;SDS011;38441;52.894;6.040;2023-02-28T13:42:48;6.75;;;4.10;;
52530;SDS011;38441;52.894;6.040;2023-02-28T13:45:23;6.65;;;3.45;;
52530;SDS011;38441;52.894;6.040;2023-02-28T13:47:54;4.45;;;2.85;;
52530;SDS011;38441;52.894;6.040;2023-02-28T13:58:06;7.30;;;3.38;;
52530;SDS011;38441;52.894;6.040;2023-02-28T14:00:36;6.43;;;3.38;;
52530;SDS011;38441;52.894;6.040;2023-02-28T14:03:19;5.07;;;3.00;;
52530;SDS011;38441;52.894;6.040;2023-02-28T14:06:14;6.93;;;3.35;;
52530;SDS011;38441;52.894;6.040;2023-02-28T14:09:35;5.97;;;3.30;;
52530;SDS011;38441;52.894;6.040;2023-02-28T14:11:50;6.63;;;3.70;;
52530;SDS011;38441;52.894;6.040;2023-02-28T14:17:05;5.38;;;3.35;;
52530;SDS011;38441;52.894;6.040;2023-02-28T14:19:37;6.88;;;3.10;;
52530;SDS011;38441;52.894;6.040;2023-02-28T14:38:27;5.30;;;3.20;;
52530;SDS011;38441;52.894;6.040;2023-02-28T14:40:57;5.22;;;2.85;;
52530;SDS011;38441;52.894;6.040;2023-02-28T14:43:26;5.47;;;3.00;;
52530;SDS011;38441;52.894;6.040;2023-02-28T14:46:00;5.65;;;2.90;;
52530;SDS011;38441;52.894;6.040;2023-02-28T14:48:28;6.18;;;2.92;;
52530;SDS011;38441;52.894;6.040;2023-02-28T14:50:55;5.38;;;2.97;;
52530;SDS011;38441;52.894;6.040;2023-02-28T14:53:23;4.72;;;2.45;;
52530;SDS011;38441;52.894;6.040;2023-02-28T14:58:24;5.38;;;3.25;;
52530;SDS011;38441;52.894;6.040;2023-02-28T15:00:52;5.53;;;3.03;;
52530;SDS011;38441;52.894;6.040;2023-02-28T15:03:24;5.95;;;2.80;;
52530;SDS011;38441;52.894;6.040;2023-02-28T15:06:02;5.07;;;2.90;;
52530;SDS011;38441;52.894;6.040;2023-02-28T15:08:37;5.78;;;2.85;;
52530;SDS011;38441;52.894;6.040;2023-02-28T15:11:23;5.80;;;3.03;;
52530;SDS011;38441;52.894;6.040;2023-02-28T15:13:49;5.63;;;2.70;;
52530;SDS011;38441;52.894;6.040;2023-02-28T15:16:31;5.95;;;3.15;;
52530;SDS011;38441;52.894;6.040;2023-02-28T15:19:05;5.85;;;3.05;;
52530;SDS011;38441;52.894;6.040;2023-02-28T15:21:39;6.10;;;2.97;;
52530;SDS011;38441;52.894;6.040;2023-02-28T15:27:04;6.85;;;3.17;;
52530;SDS011;38441;52.894;6.040;2023-02-28T15:29:41;5.05;;;3.05;;
52530;SDS011;38441;52.894;6.040;2023-02-28T15:32:24;5.68;;;3.50;;
52530;SDS011;38441;52.894;6.040;2023-02-28T15:34:57;5.80;;;3.58;;
52530;SDS011;38441;52.894;6.040;2023-02-28T15:37:44;5.50;;;3.53;;
52530;SDS011;38441;52.894;6.040;2023-02-28T15:42:43;5.18;;;2.92;;
52530;SDS011;38441;52.894;6.040;2023-02-28T15:45:46;6.05;;;3.13;;
52530;SDS011;38441;52.894;6.040;2023-02-28T15:48:20;8.27;;;3.30;;
52530;SDS011;38441;52.894;6.040;2023-02-28T15:50:52;5.45;;;3.22;;
52530;SDS011;38441;52.894;6.040;2023-02-28T15:53:30;5.07;;;2.97;;
52530;SDS011;38441;52.894;6.040;2023-02-28T15:56:03;4.70;;;3.17;;
52530;SDS011;38441;52.894;6.040;2023-02-28T15:58:32;9.25;;;3.40;;
52530;SDS011;38441;52.894;6.040;2023-02-28T16:01:19;5.70;;;3.47;;
52530;SDS011;38441;52.894;6.040;2023-02-28T16:03:54;4.82;;;3.15;;
52530;SDS011;38441;52.894;6.040;2023-02-28T16:06:30;7.38;;;3.55;;
52530;SDS011;38441;52.894;6.040;2023-02-28T16:09:02;5.32;;;3.40;;
52530;SDS011;38441;52.894;6.040;2023-02-28T16:11:29;5.47;;;3.17;;
52530;SDS011;38441;52.894;6.040;2023-02-28T16:13:57;5.28;;;3.33;;
52530;SDS011;38441;52.894;6.040;2023-02-28T16:16:23;6.32;;;3.40;;
52530;SDS011;38441;52.894;6.040;2023-02-28T16:18:51;8.07;;;3.90;;
52530;SDS011;38441;52.894;6.040;2023-02-28T16:21:17;5.57;;;3.22;;
52530;SDS011;38441;52.894;6.040;2023-02-28T16:23:43;6.57;;;3.15;;
52530;SDS011;38441;52.894;6.040;2023-02-28T16:26:14;6.40;;;3.75;;
52530;SDS011;38441;52.894;6.040;2023-02-28T16:28:46;5.63;;;3.88;;
52530;SDS011;38441;52.894;6.040;2023-02-28T16:31:12;5.35;;;3.42;;
52530;SDS011;38441;52.894;6.040;2023-02-28T16:33:41;6.63;;;3.80;;
52530;SDS011;38441;52.894;6.040;2023-02-28T16:36:09;6.45;;;3.83;;
52530;SDS011;38441;52.894;6.040;2023-02-28T16:38:40;4.90;;;3.20;;
52530;SDS011;38441;52.894;6.040;2023-02-28T16:41:05;8.02;;;4.13;;
52530;SDS011;38441;52.894;6.040;2023-02-28T16:43:31;5.53;;;3.67;;
52530;SDS011;38441;52.894;6.040;2023-02-28T16:45:58;5.13;;;3.45;;
52530;SDS011;38441;52.894;6.040;2023-02-28T16:48:26;5.90;;;4.15;;
52530;SDS011;38441;52.894;6.040;2023-02-28T16:50:52;5.90;;;3.45;;
52530;SDS011;38441;52.894;6.040;2023-02-28T16:53:17;7.22;;;3.92;;
52530;SDS011;38441;52.894;6.040;2023-02-28T16:55:43;7.13;;;3.97;;
52530;SDS011;38441;52.894;6.040;2023-02-28T16:58:13;7.18;;;4.45;;
52530;SDS011;38441;52.894;6.040;2023-02-28T17:00:41;5.43;;;3.65;;
52530;SDS011;38441;52.894;6.040;2023-02-28T17:03:18;8.27;;;4.10;;
52530;SDS011;38441;52.894;6.040;2023-02-28T17:05:49;5.57;;;3.83;;